sensor_id;sensor_type;location;lat;lon;timestamp;pressure;altitude;pressure_sealevel;temperature;humidity
2711;BME280;20721;47.402;8.550;2022-12-18T00:01:50;96974;;;1.56;58.66
2711;BME280;20721;47.402;8.550;2022-12-18T00:02:50;96978;;;1.59;58.51
2711;BME280;20721;47.402;8.550;2022-12-18T00:03:50;96978;;;1.64;58.24
2711;BME280;20721;47.402;8.550;2022-12-18T00:04:50;96978;;;1.65;58.09
2711;BME280;20721;47.402;8.550;2022-12-18T00:05:52;96978;;;1.66;58.16
2711;BME280;20721;47.402;8.550;2022-12-18T00:06:50;96980;;;1.68;58.19
2711;BME280;20721;47.402;8.550;2022-12-18T00:07:50;96977;;;1.69;58.15
2711;BME280;20721;47.402;8.550;2022-12-18T00:09:50;96979;;;1.66;58.16
2711;BME280;20721;47.402;8.550;2022-12-18T00:10:50;96987;;;1.65;58.35
2711;BME280;20721;47.402;8.550;2022-12-18T00:12:50;96988;;;1.68;58.46
2711;BME280;20721;47.402;8.550;2022-12-18T00:13:50;96990;;;1.70;58.42
2711;BME280;20721;47.402;8.550;2022-12-18T00:14:50;96991;;;1.68;58.21
2711;BME280;20721;47.402;8.550;2022-12-18T00:15:50;96992;;;1.66;58.34
2711;BME280;20721;47.402;8.550;2022-12-18T00:16:50;96992;;;1.65;58.48
2711;BME280;20721;47.402;8.550;2022-12-18T00:17:50;96994;;;1.69;58.62
2711;BME280;20721;47.402;8.550;2022-12-18T00:19:50;96993;;;1.72;58.58
2711;BME280;20721;47.402;8.550;2022-12-18T00:20:50;96995;;;1.75;58.53
2711;BME280;20721;47.402;8.550;2022-12-18T00:21:50;96998;;;1.79;58.63
2711;BME280;20721;47.402;8.550;2022-12-18T00:22:50;96997;;;1.82;58.61
2711;BME280;20721;47.402;8.550;2022-12-18T00:23:50;96996;;;1.86;58.47
2711;BME280;20721;47.402;8.550;2022-12-18T00:24:50;97001;;;1.89;58.22
2711;BME280;20721;47.402;8.550;2022-12-18T00:25:50;97000;;;1.90;58.13
2711;BME280;20721;47.402;8.550;2022-12-18T00:26:50;96999;;;1.89;57.89
2711;BME280;20721;47.402;8.550;2022-12-18T00:27:50;96999;;;1.91;57.89
2711;BME280;20721;47.402;8.550;2022-12-18T00:30:58;97006;;;1.92;57.77
2711;BME280;20721;47.402;8.550;2022-12-18T00:31:50;97003;;;1.91;57.89
2711;BME280;20721;47.402;8.550;2022-12-18T00:32:50;97007;;;1.90;57.71
2711;BME280;20721;47.402;8.550;2022-12-18T00:33:56;97006;;;1.88;57.69
2711;BME280;20721;47.402;8.550;2022-12-18T00:35:50;97002;;;1.89;57.93
2711;BME280;20721;47.402;8.550;2022-12-18T00:36:50;97001;;;1.88;58.03
2711;BME280;20721;47.402;8.550;2022-12-18T00:37:50;96998;;;1.89;57.81
2711;BME280;20721;47.402;8.550;2022-12-18T00:38:50;97000;;;1.88;57.72
2711;BME280;20721;47.402;8.550;2022-12-18T00:39:50;96995;;;1.86;57.87
2711;BME280;20721;47.402;8.550;2022-12-18T00:42:00;96985;;;1.84;57.62
2711;BME280;20721;47.402;8.550;2022-12-18T00:42:55;96987;;;1.81;57.89
2711;BME280;20721;47.402;8.550;2022-12-18T00:44:50;96997;;;1.84;57.95
2711;BME280;20721;47.402;8.550;2022-12-18T00:45:50;96994;;;1.82;57.80
2711;BME280;20721;47.402;8.550;2022-12-18T00:46:50;96995;;;1.84;57.84
2711;BME280;20721;47.402;8.550;2022-12-18T00:47:50;96996;;;1.85;57.86
2711;BME280;20721;47.402;8.550;2022-12-18T00:48:50;96995;;;1.84;57.95
2711;BME280;20721;47.402;8.550;2022-12-18T00:49:50;96991;;;1.81;57.87
2711;BME280;20721;47.402;8.550;2022-12-18T00:50:50;96990;;;1.79;57.89
2711;BME280;20721;47.402;8.550;2022-12-18T00:51:50;96992;;;1.76;57.70
2711;BME280;20721;47.402;8.550;2022-12-18T00:52:50;96992;;;1.72;57.89
2711;BME280;20721;47.402;8.550;2022-12-18T00:53:51;96996;;;1.70;58.23
2711;BME280;20721;47.402;8.550;2022-12-18T00:54:50;96997;;;1.71;58.09
2711;BME280;20721;47.402;8.550;2022-12-18T00:55:50;97002;;;1.70;58.12
2711;BME280;20721;47.402;8.550;2022-12-18T00:56:50;97004;;;1.72;58.25
2711;BME280;20721;47.402;8.550;2022-12-18T00:57:51;97006;;;1.74;58.37
2711;BME280;20721;47.402;8.550;2022-12-18T00:58:50;97002;;;1.76;58.31
2711;BME280;20721;47.402;8.550;2022-12-18T00:59:50;97004;;;1.80;58.15
2711;BME280;20721;47.402;8.550;2022-12-18T01:00:50;97008;;;1.83;58.12
2711;BME280;20721;47.402;8.550;2022-12-18T01:01:50;97008;;;1.84;58.12
2711;BME280;20721;47.402;8.550;2022-12-18T01:02:50;97009;;;1.86;58.25
2711;BME280;20721;47.402;8.550;2022-12-18T01:03:50;97011;;;1.85;58.12
2711;BME280;20721;47.402;8.550;2022-12-18T01:04:50;97007;;;1.86;58.06
2711;BME280;20721;47.402;8.550;2022-12-18T01:05:50;97008;;;1.88;58.22
2711;BME280;20721;47.402;8.550;2022-12-18T01:06:50;97008;;;1.87;58.12
2711;BME280;20721;47.402;8.550;2022-12-18T01:07:50;97009;;;1.88;58.32
2711;BME280;20721;47.402;8.550;2022-12-18T01:08:50;97008;;;1.89;58.17
2711;BME280;20721;47.402;8.550;2022-12-18T01:09:50;97012;;;1.90;58.26
2711;BME280;20721;47.402;8.550;2022-12-18T01:10:50;97011;;;1.91;58.10
2711;BME280;20721;47.402;8.550;2022-12-18T01:12:50;97018;;;1.93;58.09
2711;BME280;20721;47.402;8.550;2022-12-18T01:13:51;97014;;;1.94;57.90
2711;BME280;20721;47.402;8.550;2022-12-18T01:15:50;97015;;;1.95;58.08
2711;BME280;20721;47.402;8.550;2022-12-18T01:16:50;97015;;;1.96;58.11
2711;BME280;20721;47.402;8.550;2022-12-18T01:17:51;97014;;;1.97;58.13
2711;BME280;20721;47.402;8.550;2022-12-18T01:18:51;97016;;;1.96;58.19
2711;BME280;20721;47.402;8.550;2022-12-18T01:19:52;97016;;;1.94;58.05
2711;BME280;20721;47.402;8.550;2022-12-18T01:20:50;97018;;;1.95;58.10
2711;BME280;20721;47.402;8.550;2022-12-18T01:21:50;97019;;;1.94;58.00
2711;BME280;20721;47.402;8.550;2022-12-18T01:25:50;97025;;;1.96;58.00
2711;BME280;20721;47.402;8.550;2022-12-18T01:26:50;97028;;;1.98;58.00
2711;BME280;20721;47.402;8.550;2022-12-18T01:28:50;97027;;;1.97;57.99
2711;BME280;20721;47.402;8.550;2022-12-18T01:32:50;97032;;;1.98;57.86
2711;BME280;20721;47.402;8.550;2022-12-18T01:33:50;97034;;;2.00;57.91
2711;BME280;20721;47.402;8.550;2022-12-18T01:34:50;97039;;;2.01;57.93
2711;BME280;20721;47.402;8.550;2022-12-18T01:35:50;97040;;;2.02;58.00
2711;BME280;20721;47.402;8.550;2022-12-18T01:39:52;97035;;;2.03;57.76
2711;BME280;20721;47.402;8.550;2022-12-18T01:40:56;97038;;;2.00;57.87
2711;BME280;20721;47.402;8.550;2022-12-18T01:42:02;97042;;;1.99;57.88
2711;BME280;20721;47.402;8.550;2022-12-18T01:46:50;97041;;;2.00;57.79
2711;BME280;20721;47.402;8.550;2022-12-18T01:47:51;97038;;;1.98;57.82
2711;BME280;20721;47.402;8.550;2022-12-18T01:48:51;97039;;;1.97;57.81
2711;BME280;20721;47.402;8.550;2022-12-18T01:50:50;97046;;;1.95;57.86
2711;BME280;20721;47.402;8.550;2022-12-18T01:53:50;97051;;;1.97;57.84
2711;BME280;20721;47.402;8.550;2022-12-18T01:54:50;97048;;;1.96;58.04
2711;BME280;20721;47.402;8.550;2022-12-18T01:55:51;97049;;;1.97;57.99
2711;BME280;20721;47.402;8.550;2022-12-18T01:56:52;97049;;;1.96;57.96
2711;BME280;20721;47.402;8.550;2022-12-18T01:58:55;97050;;;1.98;57.90
2711;BME280;20721;47.402;8.550;2022-12-18T01:59:51;97055;;;1.99;57.89
2711;BME280;20721;47.402;8.550;2022-12-18T02:02:50;97053;;;1.96;57.94
2711;BME280;20721;47.402;8.550;2022-12-18T02:04:50;97054;;;1.97;57.91
2711;BME280;20721;47.402;8.550;2022-12-18T02:06:53;97057;;;1.96;57.75
2711;BME280;20721;47.402;8.550;2022-12-18T02:23:01;97045;;;1.94;57.87
2711;BME280;20721;47.402;8.550;2022-12-18T02:23:54;97045;;;1.93;57.63
2711;BME280;20721;47.402;8.550;2022-12-18T02:26:50;97044;;;1.91;57.64
2711;BME280;20721;47.402;8.550;2022-12-18T02:27:50;97050;;;1.88;57.41
2711;BME280;20721;47.402;8.550;2022-12-18T02:28:53;97049;;;1.86;57.43
2711;BME280;20721;47.402;8.550;2022-12-18T02:29:58;97050;;;1.85;57.50
2711;BME280;20721;47.402;8.550;2022-12-18T02:30:50;97052;;;1.81;57.60
2711;BME280;20721;47.402;8.550;2022-12-18T02:32:51;97053;;;1.83;57.88
2711;BME280;20721;47.402;8.550;2022-12-18T02:33:53;97052;;;1.77;57.15
2711;BME280;20721;47.402;8.550;2022-12-18T02:34:50;97051;;;1.71;57.41
2711;BME280;20721;47.402;8.550;2022-12-18T02:35:50;97056;;;1.64;57.54
2711;BME280;20721;47.402;8.550;2022-12-18T02:36:50;97054;;;1.60;58.04
2711;BME280;20721;47.402;8.550;2022-12-18T02:37:53;97060;;;1.59;58.10
2711;BME280;20721;47.402;8.550;2022-12-18T02:38:50;97062;;;1.60;57.95
2711;BME280;20721;47.402;8.550;2022-12-18T02:40:50;97058;;;1.62;58.33
2711;BME280;20721;47.402;8.550;2022-12-18T02:41:50;97059;;;1.66;58.28
2711;BME280;20721;47.402;8.550;2022-12-18T02:42:50;97056;;;1.68;58.34
2711;BME280;20721;47.402;8.550;2022-12-18T02:43:59;97054;;;1.71;58.33
2711;BME280;20721;47.402;8.550;2022-12-18T02:45:52;97045;;;1.70;57.66
2711;BME280;20721;47.402;8.550;2022-12-18T02:46:51;97044;;;1.68;57.80
2711;BME280;20721;47.402;8.550;2022-12-18T02:47:50;97040;;;1.67;57.67
2711;BME280;20721;47.402;8.550;2022-12-18T02:50:55;97045;;;1.68;58.21
2711;BME280;20721;47.402;8.550;2022-12-18T02:51:55;97050;;;1.69;57.97
2711;BME280;20721;47.402;8.550;2022-12-18T02:53:10;97054;;;1.70;57.92
2711;BME280;20721;47.402;8.550;2022-12-18T02:53:52;97051;;;1.72;57.83
2711;BME280;20721;47.402;8.550;2022-12-18T02:54:55;97053;;;1.74;57.93
2711;BME280;20721;47.402;8.550;2022-12-18T02:57:54;97061;;;1.72;57.97
2711;BME280;20721;47.402;8.550;2022-12-18T03:00:53;97062;;;1.74;57.81
2711;BME280;20721;47.402;8.550;2022-12-18T03:01:54;97056;;;1.75;57.89
2711;BME280;20721;47.402;8.550;2022-12-18T03:02:56;97054;;;1.76;57.95
2711;BME280;20721;47.402;8.550;2022-12-18T03:03:51;97053;;;1.77;57.89
2711;BME280;20721;47.402;8.550;2022-12-18T03:05:52;97061;;;1.77;58.07
2711;BME280;20721;47.402;8.550;2022-12-18T03:08:07;97058;;;1.79;58.27
2711;BME280;20721;47.402;8.550;2022-12-18T03:08:52;97056;;;1.81;58.17
2711;BME280;20721;47.402;8.550;2022-12-18T03:09:50;97059;;;1.84;58.09
2711;BME280;20721;47.402;8.550;2022-12-18T03:10:54;97059;;;1.83;57.73
2711;BME280;20721;47.402;8.550;2022-12-18T03:12:04;97061;;;1.84;57.75
2711;BME280;20721;47.402;8.550;2022-12-18T03:13:51;97055;;;1.81;57.80
2711;BME280;20721;47.402;8.550;2022-12-18T03:14:52;97060;;;1.82;57.82
2711;BME280;20721;47.402;8.550;2022-12-18T03:15:50;97068;;;1.81;57.93
2711;BME280;20721;47.402;8.550;2022-12-18T03:16:51;97066;;;1.83;57.92
2711;BME280;20721;47.402;8.550;2022-12-18T03:17:52;97068;;;1.82;57.90
2711;BME280;20721;47.402;8.550;2022-12-18T03:18:53;97072;;;1.81;57.87
2711;BME280;20721;47.402;8.550;2022-12-18T03:19:51;97070;;;1.82;58.02
2711;BME280;20721;47.402;8.550;2022-12-18T03:20:50;97076;;;1.84;57.86
2711;BME280;20721;47.402;8.550;2022-12-18T03:25:51;97086;;;1.85;57.94
2711;BME280;20721;47.402;8.550;2022-12-18T03:27:51;97084;;;1.86;58.10
2711;BME280;20721;47.402;8.550;2022-12-18T03:28:55;97080;;;1.85;58.05
2711;BME280;20721;47.402;8.550;2022-12-18T03:29:53;97078;;;1.86;57.96
2711;BME280;20721;47.402;8.550;2022-12-18T03:31:53;97071;;;1.87;57.94
2711;BME280;20721;47.402;8.550;2022-12-18T03:34:50;97073;;;1.86;57.84
2711;BME280;20721;47.402;8.550;2022-12-18T03:37:50;97089;;;1.87;58.05
2711;BME280;20721;47.402;8.550;2022-12-18T03:38:51;97091;;;1.88;58.07
2711;BME280;20721;47.402;8.550;2022-12-18T03:39:50;97091;;;1.87;58.03
2711;BME280;20721;47.402;8.550;2022-12-18T03:43:52;97082;;;1.89;58.10
2711;BME280;20721;47.402;8.550;2022-12-18T03:45:55;97086;;;1.88;58.00
2711;BME280;20721;47.402;8.550;2022-12-18T03:48:52;97089;;;1.88;57.99
2711;BME280;20721;47.402;8.550;2022-12-18T03:52:52;97090;;;1.90;58.08
2711;BME280;20721;47.402;8.550;2022-12-18T03:53:55;97091;;;1.92;57.93
2711;BME280;20721;47.402;8.550;2022-12-18T03:54:50;97099;;;1.93;57.74
2711;BME280;20721;47.402;8.550;2022-12-18T03:55:51;97103;;;1.91;57.55
2711;BME280;20721;47.402;8.550;2022-12-18T03:56:54;97104;;;1.89;57.75
2711;BME280;20721;47.402;8.550;2022-12-18T03:57:50;97104;;;1.85;57.70
2711;BME280;20721;47.402;8.550;2022-12-18T03:58:51;97100;;;1.82;57.69
2711;BME280;20721;47.402;8.550;2022-12-18T03:59:51;97099;;;1.80;57.78
2711;BME280;20721;47.402;8.550;2022-12-18T04:01:51;97101;;;1.79;57.92
2711;BME280;20721;47.402;8.550;2022-12-18T04:02:51;97104;;;1.80;58.18
2711;BME280;20721;47.402;8.550;2022-12-18T04:03:51;97105;;;1.81;58.04
2711;BME280;20721;47.402;8.550;2022-12-18T04:05:51;97108;;;1.83;57.97
2711;BME280;20721;47.402;8.550;2022-12-18T04:06:50;97111;;;1.85;57.85
2711;BME280;20721;47.402;8.550;2022-12-18T04:07:50;97111;;;1.86;57.86
2711;BME280;20721;47.402;8.550;2022-12-18T04:08:50;97111;;;1.87;57.97
2711;BME280;20721;47.402;8.550;2022-12-18T04:09:51;97109;;;1.90;57.73
2711;BME280;20721;47.402;8.550;2022-12-18T04:11:51;97106;;;1.88;57.46
2711;BME280;20721;47.402;8.550;2022-12-18T04:12:50;97106;;;1.86;57.72
2711;BME280;20721;47.402;8.550;2022-12-18T04:13:52;97111;;;1.85;57.69
2711;BME280;20721;47.402;8.550;2022-12-18T04:14:50;97103;;;1.82;57.68
2711;BME280;20721;47.402;8.550;2022-12-18T04:15:51;97103;;;1.81;57.73
2711;BME280;20721;47.402;8.550;2022-12-18T04:17:51;97102;;;1.78;57.54
2711;BME280;20721;47.402;8.550;2022-12-18T04:18:51;97107;;;1.75;57.72
2711;BME280;20721;47.402;8.550;2022-12-18T04:19:50;97109;;;1.72;57.86
2711;BME280;20721;47.402;8.550;2022-12-18T04:20:50;97106;;;1.69;57.54
2711;BME280;20721;47.402;8.550;2022-12-18T04:21:50;97109;;;1.67;57.74
2711;BME280;20721;47.402;8.550;2022-12-18T04:22:50;97109;;;1.66;57.91
2711;BME280;20721;47.402;8.550;2022-12-18T04:23:50;97111;;;1.67;58.04
2711;BME280;20721;47.402;8.550;2022-12-18T04:24:53;97114;;;1.68;57.78
2711;BME280;20721;47.402;8.550;2022-12-18T04:26:50;97113;;;1.66;57.62
2711;BME280;20721;47.402;8.550;2022-12-18T04:27:50;97114;;;1.64;57.86
2711;BME280;20721;47.402;8.550;2022-12-18T04:28:51;97115;;;1.62;57.58
2711;BME280;20721;47.402;8.550;2022-12-18T04:29:51;97118;;;1.59;57.69
2711;BME280;20721;47.402;8.550;2022-12-18T04:30:51;97122;;;1.57;57.83
2711;BME280;20721;47.402;8.550;2022-12-18T04:31:51;97123;;;1.59;58.03
2711;BME280;20721;47.402;8.550;2022-12-18T04:32:52;97124;;;1.61;57.99
2711;BME280;20721;47.402;8.550;2022-12-18T04:33:50;97130;;;1.62;57.96
2711;BME280;20721;47.402;8.550;2022-12-18T04:34:51;97133;;;1.65;57.85
2711;BME280;20721;47.402;8.550;2022-12-18T04:35:50;97130;;;1.61;57.80
2711;BME280;20721;47.402;8.550;2022-12-18T04:36:51;97133;;;1.62;57.91
2711;BME280;20721;47.402;8.550;2022-12-18T04:37:50;97133;;;1.65;58.06
2711;BME280;20721;47.402;8.550;2022-12-18T04:38:51;97136;;;1.69;58.09
2711;BME280;20721;47.402;8.550;2022-12-18T04:39:51;97130;;;1.71;58.09
2711;BME280;20721;47.402;8.550;2022-12-18T04:40:51;97132;;;1.73;57.90
2711;BME280;20721;47.402;8.550;2022-12-18T04:41:51;97132;;;1.74;57.66
2711;BME280;20721;47.402;8.550;2022-12-18T04:42:51;97129;;;1.75;57.83
2711;BME280;20721;47.402;8.550;2022-12-18T04:43:51;97131;;;1.77;57.95
2711;BME280;20721;47.402;8.550;2022-12-18T04:44:50;97127;;;1.76;57.75
2711;BME280;20721;47.402;8.550;2022-12-18T04:45:51;97125;;;1.78;57.58
2711;BME280;20721;47.402;8.550;2022-12-18T04:48:50;97130;;;1.77;57.95
2711;BME280;20721;47.402;8.550;2022-12-18T04:49:51;97127;;;1.80;57.94
2711;BME280;20721;47.402;8.550;2022-12-18T04:50:51;97128;;;1.79;57.75
2711;BME280;20721;47.402;8.550;2022-12-18T04:51:51;97131;;;1.78;57.31
2711;BME280;20721;47.402;8.550;2022-12-18T04:54:51;97136;;;1.76;57.71
2711;BME280;20721;47.402;8.550;2022-12-18T04:55:51;97134;;;1.77;57.62
2711;BME280;20721;47.402;8.550;2022-12-18T04:56:51;97132;;;1.79;57.49
2711;BME280;20721;47.402;8.550;2022-12-18T04:57:51;97139;;;1.80;57.34
2711;BME280;20721;47.402;8.550;2022-12-18T04:59:51;97136;;;1.77;57.77
2711;BME280;20721;47.402;8.550;2022-12-18T05:00:50;97136;;;1.75;57.22
2711;BME280;20721;47.402;8.550;2022-12-18T05:01:54;97134;;;1.74;57.02
2711;BME280;20721;47.402;8.550;2022-12-18T05:02:51;97130;;;1.71;56.96
2711;BME280;20721;47.402;8.550;2022-12-18T05:03:51;97127;;;1.64;57.11
2711;BME280;20721;47.402;8.550;2022-12-18T05:04:51;97128;;;1.47;57.03
2711;BME280;20721;47.402;8.550;2022-12-18T05:05:51;97125;;;1.29;57.72
2711;BME280;20721;47.402;8.550;2022-12-18T05:06:51;97123;;;1.15;58.33
2711;BME280;20721;47.402;8.550;2022-12-18T05:07:51;97126;;;1.12;58.64
2711;BME280;20721;47.402;8.550;2022-12-18T05:08:51;97128;;;0.98;58.95
2711;BME280;20721;47.402;8.550;2022-12-18T05:09:51;97131;;;0.93;59.13
2711;BME280;20721;47.402;8.550;2022-12-18T05:10:58;97129;;;0.89;59.13
2711;BME280;20721;47.402;8.550;2022-12-18T05:12:58;97125;;;0.98;59.30
2711;BME280;20721;47.402;8.550;2022-12-18T05:13:51;97123;;;1.03;59.25
2711;BME280;20721;47.402;8.550;2022-12-18T05:14:51;97119;;;0.93;59.28
2711;BME280;20721;47.402;8.550;2022-12-18T05:15:51;97118;;;0.91;59.43
2711;BME280;20721;47.402;8.550;2022-12-18T05:16:51;97118;;;0.84;59.58
2711;BME280;20721;47.402;8.550;2022-12-18T05:17:51;97118;;;0.77;59.80
2711;BME280;20721;47.402;8.550;2022-12-18T05:18:51;97120;;;0.73;59.80
2711;BME280;20721;47.402;8.550;2022-12-18T05:19:51;97121;;;0.72;59.91
2711;BME280;20721;47.402;8.550;2022-12-18T05:20:51;97120;;;0.71;60.16
2711;BME280;20721;47.402;8.550;2022-12-18T05:21:51;97123;;;0.66;60.33
2711;BME280;20721;47.402;8.550;2022-12-18T05:22:51;97121;;;0.70;60.42
2711;BME280;20721;47.402;8.550;2022-12-18T05:23:51;97122;;;0.73;60.29
2711;BME280;20721;47.402;8.550;2022-12-18T05:24:51;97123;;;0.80;60.23
2711;BME280;20721;47.402;8.550;2022-12-18T05:25:51;97127;;;0.84;59.91
2711;BME280;20721;47.402;8.550;2022-12-18T05:27:51;97127;;;0.85;59.92
2711;BME280;20721;47.402;8.550;2022-12-18T05:28:51;97130;;;0.87;59.97
2711;BME280;20721;47.402;8.550;2022-12-18T05:29:51;97132;;;0.92;60.01
2711;BME280;20721;47.402;8.550;2022-12-18T05:30:51;97130;;;0.93;59.77
2711;BME280;20721;47.402;8.550;2022-12-18T05:31:51;97132;;;0.95;59.82
2711;BME280;20721;47.402;8.550;2022-12-18T05:34:51;97137;;;0.97;59.91
2711;BME280;20721;47.402;8.550;2022-12-18T05:36:51;97141;;;0.99;59.89
2711;BME280;20721;47.402;8.550;2022-12-18T05:37:51;97143;;;1.02;59.69
2711;BME280;20721;47.402;8.550;2022-12-18T05:38:54;97142;;;1.01;59.62
2711;BME280;20721;47.402;8.550;2022-12-18T05:39:51;97143;;;1.00;59.75
2711;BME280;20721;47.402;8.550;2022-12-18T05:40:51;97145;;;1.02;59.63
2711;BME280;20721;47.402;8.550;2022-12-18T05:41:51;97145;;;0.98;59.63
2711;BME280;20721;47.402;8.550;2022-12-18T05:42:51;97144;;;0.94;59.94
2711;BME280;20721;47.402;8.550;2022-12-18T05:43:51;97143;;;0.93;59.99
2711;BME280;20721;47.402;8.550;2022-12-18T05:44:51;97140;;;0.92;59.78
2711;BME280;20721;47.402;8.550;2022-12-18T05:45:51;97145;;;0.93;59.98
2711;BME280;20721;47.402;8.550;2022-12-18T05:46:51;97145;;;0.88;59.82
2711;BME280;20721;47.402;8.550;2022-12-18T05:47:51;97143;;;0.86;59.88
2711;BME280;20721;47.402;8.550;2022-12-18T05:48:51;97145;;;0.85;60.03
2711;BME280;20721;47.402;8.550;2022-12-18T05:49:51;97146;;;0.86;59.71
2711;BME280;20721;47.402;8.550;2022-12-18T05:50:51;97148;;;0.90;59.86
2711;BME280;20721;47.402;8.550;2022-12-18T05:51:51;97145;;;0.94;60.00
2711;BME280;20721;47.402;8.550;2022-12-18T05:52:51;97144;;;0.96;59.73
2711;BME280;20721;47.402;8.550;2022-12-18T05:53:51;97144;;;0.90;59.67
2711;BME280;20721;47.402;8.550;2022-12-18T05:54:51;97142;;;0.92;60.01
2711;BME280;20721;47.402;8.550;2022-12-18T05:55:51;97141;;;0.95;59.97
2711;BME280;20721;47.402;8.550;2022-12-18T05:56:51;97140;;;0.97;59.87
2711;BME280;20721;47.402;8.550;2022-12-18T05:58:51;97142;;;1.01;59.92
2711;BME280;20721;47.402;8.550;2022-12-18T05:59:51;97138;;;1.06;60.09
2711;BME280;20721;47.402;8.550;2022-12-18T06:00:51;97139;;;1.11;59.71
2711;BME280;20721;47.402;8.550;2022-12-18T06:01:51;97135;;;1.13;59.51
2711;BME280;20721;47.402;8.550;2022-12-18T06:02:51;97135;;;1.12;59.43
2711;BME280;20721;47.402;8.550;2022-12-18T06:03:51;97130;;;1.10;59.47
2711;BME280;20721;47.402;8.550;2022-12-18T06:04:51;97133;;;1.12;59.43
2711;BME280;20721;47.402;8.550;2022-12-18T06:05:51;97135;;;1.11;59.73
2711;BME280;20721;47.402;8.550;2022-12-18T06:06:51;97137;;;1.13;59.69
2711;BME280;20721;47.402;8.550;2022-12-18T06:07:51;97140;;;1.12;59.24
2711;BME280;20721;47.402;8.550;2022-12-18T06:08:51;97142;;;1.07;59.45
2711;BME280;20721;47.402;8.550;2022-12-18T06:09:51;97141;;;0.98;59.72
2711;BME280;20721;47.402;8.550;2022-12-18T06:10:52;97149;;;0.92;59.91
2711;BME280;20721;47.402;8.550;2022-12-18T06:11:51;97147;;;0.91;60.07
2711;BME280;20721;47.402;8.550;2022-12-18T06:12:51;97149;;;0.93;60.25
2711;BME280;20721;47.402;8.550;2022-12-18T06:13:58;97154;;;0.96;60.30
2711;BME280;20721;47.402;8.550;2022-12-18T06:14:51;97155;;;1.00;60.40
2711;BME280;20721;47.402;8.550;2022-12-18T06:15:54;97154;;;1.06;60.25
2711;BME280;20721;47.402;8.550;2022-12-18T06:16:52;97157;;;1.07;60.05
2711;BME280;20721;47.402;8.550;2022-12-18T06:17:51;97156;;;1.10;59.99
2711;BME280;20721;47.402;8.550;2022-12-18T06:18:51;97154;;;1.18;60.01
2711;BME280;20721;47.402;8.550;2022-12-18T06:19:51;97158;;;1.23;60.17
2711;BME280;20721;47.402;8.550;2022-12-18T06:20:58;97161;;;1.29;60.20
2711;BME280;20721;47.402;8.550;2022-12-18T06:21:51;97159;;;1.30;59.31
2711;BME280;20721;47.402;8.550;2022-12-18T06:22:51;97159;;;1.26;59.58
2711;BME280;20721;47.402;8.550;2022-12-18T06:23:51;97163;;;1.27;59.42
2711;BME280;20721;47.402;8.550;2022-12-18T06:24:51;97166;;;1.21;59.45
2711;BME280;20721;47.402;8.550;2022-12-18T06:25:51;97165;;;1.22;59.52
2711;BME280;20721;47.402;8.550;2022-12-18T06:26:51;97167;;;1.26;59.36
2711;BME280;20721;47.402;8.550;2022-12-18T06:27:51;97165;;;1.28;59.17
2711;BME280;20721;47.402;8.550;2022-12-18T06:28:51;97169;;;1.22;59.20
2711;BME280;20721;47.402;8.550;2022-12-18T06:29:51;97168;;;1.17;59.36
2711;BME280;20721;47.402;8.550;2022-12-18T06:30:51;97173;;;1.18;59.58
2711;BME280;20721;47.402;8.550;2022-12-18T06:31:51;97168;;;1.12;59.42
2711;BME280;20721;47.402;8.550;2022-12-18T06:32:57;97172;;;1.10;59.59
2711;BME280;20721;47.402;8.550;2022-12-18T06:33:51;97169;;;1.08;59.76
2711;BME280;20721;47.402;8.550;2022-12-18T06:34:51;97172;;;1.07;59.71
2711;BME280;20721;47.402;8.550;2022-12-18T06:35:51;97170;;;1.08;59.82
2711;BME280;20721;47.402;8.550;2022-12-18T06:36:51;97169;;;1.07;59.87
2711;BME280;20721;47.402;8.550;2022-12-18T06:37:51;97172;;;1.09;60.03
2711;BME280;20721;47.402;8.550;2022-12-18T06:38:51;97167;;;0.93;59.77
2711;BME280;20721;47.402;8.550;2022-12-18T06:39:51;97164;;;0.76;60.06
2711;BME280;20721;47.402;8.550;2022-12-18T06:40:51;97164;;;0.71;60.53
2711;BME280;20721;47.402;8.550;2022-12-18T06:41:51;97166;;;0.74;60.92
2711;BME280;20721;47.402;8.550;2022-12-18T06:42:51;97166;;;0.82;60.92
2711;BME280;20721;47.402;8.550;2022-12-18T06:43:54;97171;;;0.93;60.76
2711;BME280;20721;47.402;8.550;2022-12-18T06:44:51;97168;;;1.03;60.72
2711;BME280;20721;47.402;8.550;2022-12-18T06:45:57;97167;;;1.10;59.95
2711;BME280;20721;47.402;8.550;2022-12-18T06:46:51;97170;;;1.15;59.84
2711;BME280;20721;47.402;8.550;2022-12-18T06:47:51;97174;;;1.23;59.77
2711;BME280;20721;47.402;8.550;2022-12-18T06:48:51;97178;;;1.28;59.48
2711;BME280;20721;47.402;8.550;2022-12-18T06:49:51;97179;;;1.32;59.34
2711;BME280;20721;47.402;8.550;2022-12-18T06:50:51;97181;;;1.34;59.32
2711;BME280;20721;47.402;8.550;2022-12-18T06:51:51;97182;;;1.35;59.00
2711;BME280;20721;47.402;8.550;2022-12-18T06:52:54;97185;;;1.34;59.23
2711;BME280;20721;47.402;8.550;2022-12-18T06:53:51;97187;;;1.36;59.23
2711;BME280;20721;47.402;8.550;2022-12-18T06:54:51;97190;;;1.37;59.09
2711;BME280;20721;47.402;8.550;2022-12-18T06:55:51;97192;;;1.36;59.07
2711;BME280;20721;47.402;8.550;2022-12-18T06:57:51;97195;;;1.23;59.39
2711;BME280;20721;47.402;8.550;2022-12-18T06:58:51;97195;;;1.21;59.34
2711;BME280;20721;47.402;8.550;2022-12-18T06:59:51;97200;;;1.20;59.46
2711;BME280;20721;47.402;8.550;2022-12-18T07:00:51;97198;;;1.22;59.68
2711;BME280;20721;47.402;8.550;2022-12-18T07:01:51;97197;;;1.26;59.67
2711;BME280;20721;47.402;8.550;2022-12-18T07:02:51;97196;;;1.29;59.74
2711;BME280;20721;47.402;8.550;2022-12-18T07:03:51;97197;;;1.33;59.79
2711;BME280;20721;47.402;8.550;2022-12-18T07:04:51;97200;;;1.34;59.38
2711;BME280;20721;47.402;8.550;2022-12-18T07:05:51;97199;;;1.32;59.17
2711;BME280;20721;47.402;8.550;2022-12-18T07:07:51;97200;;;1.31;59.14
2711;BME280;20721;47.402;8.550;2022-12-18T07:08:52;97202;;;1.29;59.21
2711;BME280;20721;47.402;8.550;2022-12-18T07:10:56;97207;;;1.28;59.51
2711;BME280;20721;47.402;8.550;2022-12-18T07:11:51;97206;;;1.29;59.40
2711;BME280;20721;47.402;8.550;2022-12-18T07:12:51;97208;;;1.33;59.37
2711;BME280;20721;47.402;8.550;2022-12-18T07:13:51;97211;;;1.34;59.43
2711;BME280;20721;47.402;8.550;2022-12-18T07:14:51;97213;;;1.35;59.47
2711;BME280;20721;47.402;8.550;2022-12-18T07:15:51;97214;;;1.38;59.35
2711;BME280;20721;47.402;8.550;2022-12-18T07:16:51;97215;;;1.32;59.11
2711;BME280;20721;47.402;8.550;2022-12-18T07:17:51;97212;;;1.25;59.32
2711;BME280;20721;47.402;8.550;2022-12-18T07:18:51;97214;;;1.22;59.65
2711;BME280;20721;47.402;8.550;2022-12-18T07:19:51;97213;;;1.04;59.77
2711;BME280;20721;47.402;8.550;2022-12-18T07:20:51;97213;;;0.96;60.25